createdAt,value
2018-05-02T00:01:26.269Z,11.20
2018-05-02T00:03:55.104Z,11.30
2018-05-02T00:06:23.944Z,11.20
2018-05-02T00:08:52.777Z,11.20
2018-05-02T00:11:21.611Z,11.20
2018-05-02T00:13:50.441Z,11.20
2018-05-02T00:16:20.046Z,11.10
2018-05-02T00:18:49.628Z,11.10
2018-05-02T00:21:18.465Z,11.10
2018-05-02T00:23:47.404Z,11.10
2018-05-02T00:26:16.778Z,11.10
2018-05-02T00:28:45.596Z,11.10
2018-05-02T00:31:15.332Z,11.00
2018-05-02T00:33:44.936Z,11.00
2018-05-02T00:36:14.536Z,11.10
2018-05-02T00:38:44.129Z,11.00
2018-05-02T00:41:12.972Z,11.00
2018-05-02T00:43:41.802Z,11.00
2018-05-02T00:46:10.638Z,10.90
2018-05-02T00:48:51.373Z,11.00
2018-05-02T00:51:20.204Z,10.90
2018-05-02T00:53:49.053Z,11.00
2018-05-02T00:56:18.651Z,11.00
2018-05-02T00:58:47.489Z,10.90
2018-05-02T01:01:16.382Z,10.90
2018-05-02T01:03:45.221Z,10.80
2018-05-02T01:06:14.056Z,10.80
2018-05-02T01:08:42.918Z,10.90
2018-05-02T01:11:12.508Z,10.90
2018-05-02T01:13:41.351Z,10.90
2018-05-02T01:16:10.181Z,10.90
2018-05-02T01:18:39.027Z,10.80
2018-05-02T01:21:07.865Z,10.90
2018-05-02T01:23:36.712Z,10.80
2018-05-02T01:26:06.289Z,10.80
2018-05-02T01:28:35.166Z,10.80
2018-05-02T01:31:04.774Z,10.80
2018-05-02T01:33:33.593Z,10.80
2018-05-02T01:36:02.439Z,10.90
2018-05-02T01:38:31.283Z,10.90
2018-05-02T01:41:00.109Z,10.90
2018-05-02T01:43:28.935Z,10.90
2018-05-02T01:45:57.776Z,10.80
2018-05-02T01:48:26.998Z,10.80
2018-05-02T01:50:56.565Z,10.80
2018-05-02T01:53:25.392Z,10.80
2018-05-02T01:55:54.246Z,10.80
2018-05-02T01:58:24.160Z,10.70
2018-05-02T02:00:53.010Z,10.70
2018-05-02T02:03:21.885Z,10.70
2018-05-02T02:05:50.733Z,10.80
2018-05-02T02:08:19.558Z,10.80
2018-05-02T02:10:48.453Z,10.70
2018-05-02T02:13:17.286Z,10.70
2018-05-02T02:15:46.123Z,10.60
2018-05-02T02:18:14.944Z,10.60
2018-05-02T02:20:43.780Z,10.60
2018-05-02T02:23:13.372Z,10.50
2018-05-02T02:25:42.212Z,10.50
2018-05-02T02:28:11.050Z,10.50
2018-05-02T02:30:39.892Z,10.50
2018-05-02T02:33:08.724Z,10.40
2018-05-02T02:35:37.553Z,10.30
2018-05-02T02:38:07.153Z,10.30
2018-05-02T02:40:36.761Z,10.30
2018-05-02T02:43:05.969Z,10.30
2018-05-02T02:45:34.789Z,10.30
2018-05-02T02:48:03.715Z,10.30
2018-05-02T02:50:32.449Z,10.30
2018-05-02T02:53:01.300Z,10.20
2018-05-02T02:55:30.127Z,10.20
2018-05-02T02:57:59.732Z,10.10
2018-05-02T03:00:28.889Z,10.10
2018-05-02T03:02:57.867Z,10.10
2018-05-02T03:05:26.677Z,10.10
2018-05-02T03:07:57.058Z,10.30
2018-05-02T03:10:25.872Z,10.30
2018-05-02T03:12:54.704Z,10.40
2018-05-02T03:15:24.310Z,10.40
2018-05-02T03:17:53.381Z,10.40
2018-05-02T03:20:22.214Z,10.40
2018-05-02T03:22:51.050Z,10.30
2018-05-02T03:25:19.869Z,10.30
2018-05-02T03:27:48.738Z,10.30
2018-05-02T03:30:17.537Z,10.20
2018-05-02T03:32:46.379Z,10.20
2018-05-02T03:35:15.224Z,10.20
2018-05-02T03:37:44.818Z,10.30
2018-05-02T03:40:15.899Z,10.20
2018-05-02T03:42:44.720Z,10.30
2018-05-02T03:45:13.577Z,10.30
2018-05-02T03:47:42.410Z,10.30
2018-05-02T03:50:12.158Z,10.10
2018-05-02T03:52:42.173Z,10.00
2018-05-02T03:55:11.769Z,10.00
2018-05-02T03:57:41.377Z,10.00
2018-05-02T04:00:22.761Z,9.90
2018-05-02T04:03:04.325Z,9.80
2018-05-02T04:05:45.211Z,9.70
2018-05-02T04:08:14.041Z,9.80
2018-05-02T04:10:42.876Z,9.80
2018-05-02T04:13:11.720Z,9.80
2018-05-02T04:15:40.549Z,9.90
2018-05-02T04:18:09.419Z,9.90
2018-05-02T04:20:38.252Z,10.00
2018-05-02T04:23:07.891Z,10.10
2018-05-02T04:25:36.721Z,10.00
2018-05-02T04:28:05.561Z,10.10
2018-05-02T04:30:34.400Z,10.10
2018-05-02T04:33:03.241Z,10.10
2018-05-02T04:35:32.062Z,10.20
2018-05-02T04:38:00.922Z,10.20
2018-05-02T04:40:29.740Z,10.20
2018-05-02T04:42:58.597Z,10.20
2018-05-02T04:45:27.431Z,10.20
2018-05-02T04:47:56.286Z,10.10
2018-05-02T04:50:26.022Z,10.20
2018-05-02T04:52:55.661Z,10.20
2018-05-02T04:55:24.509Z,10.20
2018-05-02T04:57:53.328Z,10.30
2018-05-02T05:00:22.162Z,10.40
2018-05-02T05:02:51.006Z,10.30
2018-05-02T05:05:19.829Z,10.20
2018-05-02T05:07:48.670Z,10.20
2018-05-02T05:10:18.281Z,10.10
2018-05-02T05:12:47.134Z,10.10
2018-05-02T05:15:15.993Z,10.10
2018-05-02T05:17:45.054Z,10.00
2018-05-02T05:20:13.954Z,9.80
2018-05-02T05:22:43.206Z,9.80
2018-05-02T05:25:12.045Z,9.80
2018-05-02T05:27:40.874Z,9.70
2018-05-02T05:30:09.696Z,9.80
2018-05-02T05:32:39.288Z,9.80
2018-05-02T05:35:08.207Z,9.70
2018-05-02T05:37:36.941Z,9.90
2018-05-02T05:40:05.774Z,9.90
2018-05-02T05:42:35.356Z,9.70
2018-05-02T05:45:04.227Z,9.70
2018-05-02T05:47:33.058Z,9.70
2018-05-02T05:50:02.641Z,9.90
2018-05-02T05:52:31.519Z,9.90
2018-05-02T05:55:00.563Z,10.00
2018-05-02T05:57:29.539Z,10.00
2018-05-02T05:59:58.419Z,10.10
2018-05-02T06:02:27.253Z,10.10
2018-05-02T06:04:56.849Z,10.10
2018-05-02T06:07:25.682Z,10.10
2018-05-02T06:09:54.509Z,10.20
2018-05-02T06:12:24.960Z,10.60
2018-05-02T06:14:58.174Z,10.70
2018-05-02T06:17:27.035Z,10.60
2018-05-02T06:19:56.663Z,10.80
2018-05-02T06:22:25.513Z,10.80
2018-05-02T06:24:54.352Z,10.90
2018-05-02T06:27:23.209Z,10.80
2018-05-02T06:29:52.032Z,10.90
2018-05-02T06:32:20.881Z,11.10
2018-05-02T06:34:49.710Z,11.20
2018-05-02T06:37:18.555Z,11.30
2018-05-02T06:39:47.384Z,11.40
2018-05-02T06:42:16.355Z,11.40
2018-05-02T06:44:45.944Z,11.70
2018-05-02T06:47:15.608Z,11.70
2018-05-02T06:49:44.445Z,11.70
2018-05-02T06:52:13.289Z,11.70
2018-05-02T06:54:42.920Z,11.80
2018-05-02T06:57:14.916Z,11.80
2018-05-02T06:59:43.765Z,11.90
2018-05-02T07:02:14.502Z,12.00
2018-05-02T07:04:43.460Z,11.90
2018-05-02T07:07:12.400Z,12.10
2018-05-02T07:09:42.225Z,12.40
2018-05-02T07:12:11.057Z,12.30
2018-05-02T07:14:40.707Z,12.70
2018-05-02T07:17:09.580Z,12.60
2018-05-02T07:19:38.756Z,12.80
2018-05-02T07:22:08.361Z,13.00
2018-05-02T07:24:37.975Z,13.10
2018-05-02T07:27:07.572Z,13.10
2018-05-02T07:29:36.432Z,13.10
2018-05-02T07:32:05.255Z,13.00
2018-05-02T07:34:34.868Z,13.20
2018-05-02T07:37:05.400Z,13.40
2018-05-02T07:39:34.253Z,13.30
2018-05-02T07:42:03.138Z,13.70
2018-05-02T07:44:31.949Z,13.90
2018-05-02T07:47:00.855Z,13.90
2018-05-02T07:49:30.468Z,14.00
2018-05-02T07:51:59.287Z,14.00
2018-05-02T07:54:28.125Z,14.10
2018-05-02T07:56:56.954Z,14.20
2018-05-02T07:59:25.842Z,14.40
2018-05-02T08:01:55.448Z,14.50
2018-05-02T08:04:25.047Z,14.50
2018-05-02T08:06:54.633Z,14.50
2018-05-02T08:09:24.356Z,14.40
2018-05-02T08:11:54.077Z,14.50
2018-05-02T08:14:23.676Z,14.70
2018-05-02T08:16:53.293Z,14.80
2018-05-02T08:19:22.889Z,15.10
2018-05-02T08:21:52.498Z,15.00
2018-05-02T08:24:21.941Z,15.00
2018-05-02T08:26:50.804Z,15.00
2018-05-02T08:29:19.649Z,15.30
2018-05-02T08:31:48.585Z,15.40
2018-05-02T08:34:17.417Z,15.50
2018-05-02T08:36:46.796Z,15.60
2018-05-02T08:39:15.632Z,15.60
2018-05-02T08:41:44.478Z,15.70
2018-05-02T08:44:13.311Z,16.00
2018-05-02T08:46:42.154Z,16.10
2018-05-02T08:49:10.996Z,16.20
2018-05-02T08:51:39.840Z,16.60
2018-05-02T08:54:08.681Z,16.90
2018-05-02T08:56:37.516Z,17.00
2018-05-02T08:59:06.353Z,17.20
2018-05-02T09:01:35.209Z,17.30
2018-05-02T09:04:04.050Z,17.60
2018-05-02T09:06:33.645Z,18.30
2018-05-02T09:09:02.604Z,18.20
2018-05-02T09:11:31.370Z,18.60
2018-05-02T09:14:00.177Z,18.90
2018-05-02T09:16:29.745Z,19.40
2018-05-02T09:18:59.348Z,19.60
2018-05-02T09:21:28.190Z,19.60
2018-05-02T09:23:57.031Z,20.10
2018-05-02T09:26:25.853Z,20.70
2018-05-02T09:28:54.709Z,21.90
2018-05-02T09:31:24.306Z,22.20
2018-05-02T09:33:53.904Z,23.20
2018-05-02T09:36:23.498Z,23.40
2018-05-02T09:38:53.860Z,24.30
2018-05-02T09:41:22.713Z,24.30
2018-05-02T09:43:51.553Z,24.30
2018-05-02T09:46:20.393Z,24.00
2018-05-02T09:48:49.213Z,23.50
2018-05-02T09:51:18.860Z,23.90
2018-05-02T09:53:49.219Z,24.20
2018-05-02T09:56:18.828Z,25.10
2018-05-02T09:58:47.681Z,25.10
2018-05-02T10:01:16.535Z,25.70
2018-05-02T10:03:45.378Z,25.30
2018-05-02T10:06:14.232Z,25.10
2018-05-02T10:08:43.076Z,25.60
2018-05-02T10:11:12.670Z,26.00
2018-05-02T10:13:42.312Z,25.60
2018-05-02T10:16:11.150Z,25.50
2018-05-02T10:18:41.513Z,25.30
2018-05-02T10:21:10.360Z,25.30
2018-05-02T10:23:40.100Z,25.90
2018-05-02T10:26:09.378Z,25.90
2018-05-02T10:28:38.993Z,27.90
2018-05-02T10:31:08.633Z,27.20
2018-05-02T10:33:37.482Z,27.20
2018-05-02T10:36:06.337Z,27.90
2018-05-02T10:38:35.165Z,26.80
2018-05-02T10:41:04.772Z,25.80
2018-05-02T10:43:34.416Z,26.10
2018-05-02T10:46:03.267Z,26.00
2018-05-02T10:48:32.095Z,26.90
2018-05-02T10:51:01.095Z,27.00
2018-05-02T10:53:29.974Z,27.40
2018-05-02T10:55:59.235Z,26.60
2018-05-02T10:58:28.847Z,26.40
2018-05-02T11:00:58.425Z,27.00
2018-05-02T11:03:27.266Z,26.90
2018-05-02T11:05:56.101Z,27.60
2018-05-02T11:08:24.999Z,28.40
2018-05-02T11:10:54.549Z,29.60
2018-05-02T11:13:24.165Z,29.10
2018-05-02T11:15:53.042Z,29.10
2018-05-02T11:18:21.884Z,29.30
2018-05-02T11:20:50.733Z,29.80
2018-05-02T11:23:19.578Z,29.80
2018-05-02T11:25:48.418Z,29.80
2018-05-02T11:28:17.253Z,29.80
2018-05-02T11:30:46.089Z,29.40
2018-05-02T11:33:14.904Z,29.20
2018-05-02T11:35:43.762Z,29.30
2018-05-02T11:38:12.628Z,29.60
2018-05-02T11:40:42.358Z,30.40
2018-05-02T11:43:11.132Z,30.30
2018-05-02T11:45:39.974Z,30.10
2018-05-02T11:48:09.016Z,30.10
2018-05-02T11:50:38.617Z,30.70
2018-05-02T11:53:08.205Z,31.50
2018-05-02T11:55:37.118Z,31.40
2018-05-02T11:58:06.717Z,30.90
2018-05-02T12:00:35.577Z,30.80
2018-05-02T12:03:04.396Z,30.30
2018-05-02T12:05:33.254Z,29.60
2018-05-02T12:08:02.081Z,29.90
2018-05-02T12:10:31.611Z,30.30
2018-05-02T12:13:00.425Z,29.30
2018-05-02T12:15:29.269Z,28.10
2018-05-02T12:17:58.104Z,26.80
2018-05-02T12:20:26.956Z,26.10
2018-05-02T12:22:55.905Z,25.40
2018-05-02T12:25:25.501Z,24.00
2018-05-02T12:27:55.134Z,23.20
2018-05-02T12:30:24.740Z,22.90
2018-05-02T12:32:53.605Z,22.80
2018-05-02T12:35:23.279Z,22.60
2018-05-02T12:37:52.071Z,22.50
2018-05-02T12:40:20.917Z,22.00
2018-05-02T12:42:49.761Z,21.60
2018-05-02T12:45:18.613Z,21.30
2018-05-02T12:47:47.449Z,21.20
2018-05-02T12:50:16.288Z,21.20
2018-05-02T12:52:45.117Z,21.40
2018-05-02T12:55:13.946Z,21.40
2018-05-02T12:57:42.799Z,21.60
2018-05-02T13:00:11.631Z,21.60
2018-05-02T13:02:40.494Z,21.40
2018-05-02T13:05:09.323Z,21.10
2018-05-02T13:07:38.937Z,21.50
2018-05-02T13:10:08.528Z,21.50
2018-05-02T13:12:38.139Z,21.40
2018-05-02T13:15:06.991Z,21.40
2018-05-02T13:17:35.845Z,21.30
2018-05-02T13:20:04.725Z,21.20
2018-05-02T13:22:34.337Z,21.00
2018-05-02T13:25:03.185Z,20.90
2018-05-02T13:27:32.052Z,21.10
2018-05-02T13:30:00.880Z,21.10
2018-05-02T13:32:30.044Z,21.30
2018-05-02T13:34:58.886Z,21.50
2018-05-02T13:37:27.757Z,21.40
2018-05-02T13:39:56.627Z,21.40
2018-05-02T13:42:25.456Z,21.30
2018-05-02T13:44:55.161Z,21.30
2018-05-02T13:47:24.796Z,21.10
2018-05-02T13:49:53.649Z,21.10
2018-05-02T13:52:23.648Z,20.60
2018-05-02T13:54:53.284Z,20.70
2018-05-02T13:57:22.903Z,20.80
2018-05-02T13:59:52.514Z,20.50
2018-05-02T14:02:21.365Z,20.50
2018-05-02T14:04:50.194Z,20.50
2018-05-02T14:07:19.821Z,20.50
2018-05-02T14:09:49.091Z,20.50
2018-05-02T14:12:18.718Z,20.70
2018-05-02T14:14:47.577Z,20.60
2018-05-02T14:17:16.470Z,20.60
2018-05-02T14:19:46.796Z,20.80
2018-05-02T14:22:16.417Z,20.80
2018-05-02T14:24:45.706Z,20.70
2018-05-02T14:27:14.438Z,20.90
2018-05-02T14:29:43.752Z,20.90
2018-05-02T14:32:12.602Z,21.00
2018-05-02T14:34:42.258Z,21.10
2018-05-02T14:37:11.084Z,21.20
2018-05-02T14:39:39.911Z,21.20
2018-05-02T14:42:08.786Z,21.20
2018-05-02T14:44:37.758Z,21.00
2018-05-02T14:47:07.394Z,20.80
2018-05-02T14:49:36.241Z,20.70
2018-05-02T14:52:05.842Z,20.70
2018-05-02T14:54:35.495Z,20.60
2018-05-02T14:57:05.140Z,20.70
2018-05-02T14:59:33.979Z,20.60
2018-05-02T15:02:04.326Z,20.30
2018-05-02T15:04:33.077Z,20.30
2018-05-02T15:07:01.950Z,20.40
2018-05-02T15:09:30.817Z,20.50
2018-05-02T15:11:59.673Z,20.70
2018-05-02T15:14:29.313Z,20.70
2018-05-02T15:16:58.142Z,20.60
2018-05-02T15:19:26.992Z,20.70
2018-05-02T15:21:55.864Z,20.60
2018-05-02T15:24:24.774Z,20.50
2018-05-02T15:26:53.652Z,20.30
2018-05-02T15:29:23.284Z,20.20
2018-05-02T15:31:52.117Z,20.20
2018-05-02T15:34:20.958Z,20.00
2018-05-02T15:36:49.805Z,20.10
2018-05-02T15:39:19.470Z,19.90
2018-05-02T15:41:48.321Z,19.80
2018-05-02T15:44:17.233Z,19.80
2018-05-02T15:46:46.044Z,19.90
2018-05-02T15:49:14.908Z,19.80
2018-05-02T15:51:43.739Z,19.70
2018-05-02T15:54:12.587Z,19.70
2018-05-02T15:56:41.850Z,19.70
2018-05-02T15:59:10.698Z,19.60
2018-05-02T16:01:39.550Z,19.50
2018-05-02T16:04:08.587Z,19.60
2018-05-02T16:06:38.132Z,19.40
2018-05-02T16:09:06.964Z,19.40
2018-05-02T16:11:35.882Z,19.50
2018-05-02T16:14:04.749Z,19.60
2018-05-02T16:16:33.603Z,19.50
2018-05-02T16:19:03.047Z,19.50
2018-05-02T16:21:33.013Z,19.30
2018-05-02T16:24:01.851Z,19.20
2018-05-02T16:26:30.688Z,19.20
2018-05-02T16:28:59.549Z,19.10
2018-05-02T16:31:29.132Z,19.20
2018-05-02T16:33:57.977Z,19.20
2018-05-02T16:36:27.071Z,19.40
2018-05-02T16:38:55.916Z,19.40
2018-05-02T16:41:24.763Z,19.40
2018-05-02T16:43:57.248Z,19.40
2018-05-02T16:46:26.083Z,19.40
2018-05-02T16:48:55.702Z,19.20
2018-05-02T16:51:24.563Z,19.10
2018-05-02T16:53:54.305Z,19.10
2018-05-02T16:56:23.131Z,19.10
2018-05-02T16:58:51.993Z,19.20
2018-05-02T17:01:20.843Z,19.10
2018-05-02T17:03:49.777Z,19.00
2018-05-02T17:06:18.960Z,18.90
2018-05-02T17:08:48.120Z,18.70
2018-05-02T17:11:17.795Z,18.70
2018-05-02T17:13:47.353Z,18.70
2018-05-02T17:16:16.968Z,18.80
2018-05-02T17:18:45.842Z,18.80
2018-05-02T17:21:14.681Z,18.80
2018-05-02T17:23:43.520Z,18.80
2018-05-02T17:26:13.137Z,18.90
2018-05-02T17:28:42.738Z,18.90
2018-05-02T17:31:12.362Z,18.80
2018-05-02T17:33:41.234Z,18.80
2018-05-02T17:36:10.851Z,18.60
2018-05-02T17:38:40.455Z,18.60
2018-05-02T17:41:10.069Z,18.60
2018-05-02T17:43:39.704Z,18.70
2018-05-02T17:46:08.550Z,18.60
2018-05-02T17:48:38.162Z,18.70
2018-05-02T17:51:07.797Z,18.70
2018-05-02T17:53:36.643Z,18.60
2018-05-02T17:56:05.502Z,18.50
2018-05-02T17:58:34.361Z,18.40
2018-05-02T18:01:03.241Z,18.10
2018-05-02T18:03:32.085Z,18.10
2018-05-02T18:06:00.969Z,18.10
2018-05-02T18:08:29.829Z,18.20
2018-05-02T18:10:58.671Z,18.20
2018-05-02T18:13:27.548Z,18.10
2018-05-02T18:15:57.549Z,18.10
2018-05-02T18:18:26.322Z,18.00
2018-05-02T18:20:55.157Z,18.00
2018-05-02T18:23:24.789Z,18.00
2018-05-02T18:25:53.721Z,17.90
2018-05-02T18:28:22.476Z,18.00
2018-05-02T18:30:51.314Z,17.90
2018-05-02T18:33:20.163Z,18.00
2018-05-02T18:35:49.011Z,18.00
2018-05-02T18:38:18.020Z,17.90
2018-05-02T18:40:47.614Z,17.90
2018-05-02T18:43:17.236Z,17.70
2018-05-02T18:45:46.089Z,17.70
2018-05-02T18:48:14.940Z,17.70
2018-05-02T18:50:43.801Z,17.60
2018-05-02T18:53:12.691Z,17.50
2018-05-02T18:55:42.286Z,17.40
2018-05-02T18:58:12.229Z,17.40
2018-05-02T19:00:41.035Z,17.30
2018-05-02T19:03:09.895Z,17.30
2018-05-02T19:05:38.878Z,17.40
2018-05-02T19:08:09.119Z,17.30
2018-05-02T19:10:38.722Z,17.30
2018-05-02T19:13:08.356Z,17.30
2018-05-02T19:15:37.234Z,17.30
2018-05-02T19:18:12.602Z,17.40
2018-05-02T19:20:41.448Z,17.40
2018-05-02T19:23:11.062Z,17.60
2018-05-02T19:25:45.563Z,17.60
2018-05-02T19:28:15.885Z,17.60
2018-05-02T19:30:45.645Z,17.70
2018-05-02T19:33:20.233Z,17.60
2018-05-02T19:35:49.071Z,17.70
2018-05-02T19:38:17.923Z,17.60
2018-05-02T19:40:52.429Z,17.50
2018-05-02T19:43:27.742Z,17.50
2018-05-02T19:45:56.601Z,17.40
2018-05-02T19:48:25.886Z,17.50
2018-05-02T19:51:01.076Z,17.50
2018-05-02T19:53:29.984Z,17.40
2018-05-02T19:55:59.628Z,17.30
2018-05-02T19:58:28.454Z,17.30
2018-05-02T20:01:02.905Z,17.30
2018-05-02T20:03:32.481Z,17.40
2018-05-02T20:06:01.350Z,17.30
2018-05-02T20:08:35.951Z,17.30
2018-05-02T20:11:11.312Z,17.40
2018-05-02T20:13:45.862Z,17.30
2018-05-02T20:16:14.708Z,17.30
2018-05-02T20:18:43.561Z,17.30
2018-05-02T20:21:12.414Z,17.20
2018-05-02T20:23:41.258Z,17.20
2018-05-02T20:26:10.901Z,17.10
2018-05-02T20:28:39.760Z,17.10
2018-05-02T20:31:08.589Z,17.00
2018-05-02T20:33:37.472Z,17.00
2018-05-02T20:36:06.325Z,17.00
2018-05-02T20:38:35.926Z,17.00
2018-05-02T20:41:05.549Z,17.00
2018-05-02T20:43:34.449Z,17.00
2018-05-02T20:46:04.059Z,17.10
2018-05-02T20:48:32.881Z,17.00
2018-05-02T20:51:01.736Z,17.00
2018-05-02T20:53:30.606Z,16.90
2018-05-02T20:55:59.478Z,16.80
2018-05-02T20:58:28.326Z,16.70
2018-05-02T21:00:57.224Z,16.70
2018-05-02T21:03:26.841Z,16.50
2018-05-02T21:05:56.443Z,16.50
2018-05-02T21:08:25.521Z,16.40
2018-05-02T21:10:55.120Z,16.60
2018-05-02T21:13:23.990Z,16.50
2018-05-02T21:15:52.826Z,16.50
2018-05-02T21:18:21.686Z,16.60
2018-05-02T21:20:52.016Z,16.60
2018-05-02T21:23:21.654Z,16.70
2018-05-02T21:25:50.485Z,16.60
2018-05-02T21:28:19.325Z,16.60
2018-05-02T21:30:48.172Z,16.60
2018-05-02T21:33:17.023Z,16.50
2018-05-02T21:35:45.856Z,16.50
2018-05-02T21:38:15.307Z,16.30
2018-05-02T21:40:44.176Z,16.30
2018-05-02T21:43:12.980Z,16.10
2018-05-02T21:45:41.839Z,16.10
2018-05-02T21:48:11.440Z,15.90
2018-05-02T21:50:41.082Z,15.80
2018-05-02T21:53:09.943Z,15.80
2018-05-02T21:55:39.530Z,15.80
2018-05-02T21:58:08.386Z,15.80
2018-05-02T22:00:37.256Z,15.60
2018-05-02T22:03:06.858Z,15.50
2018-05-02T22:05:35.690Z,15.50
2018-05-02T22:08:04.525Z,15.70
2018-05-02T22:10:33.365Z,15.80
2018-05-02T22:13:02.214Z,15.80
2018-05-02T22:15:31.053Z,15.80
2018-05-02T22:17:59.894Z,15.80
2018-05-02T22:20:30.316Z,15.60
2018-05-02T22:22:59.169Z,15.60
2018-05-02T22:25:28.043Z,15.60
2018-05-02T22:27:56.923Z,15.60
2018-05-02T22:30:26.577Z,15.80
2018-05-02T22:32:56.348Z,15.70
2018-05-02T22:35:25.181Z,15.90
2018-05-02T22:37:54.037Z,15.80
2018-05-02T22:40:23.259Z,15.70
2018-05-02T22:42:52.930Z,15.60
2018-05-02T22:45:22.518Z,15.50
2018-05-02T22:47:52.113Z,15.60
2018-05-02T22:50:21.730Z,15.70
2018-05-02T22:52:51.328Z,15.70
2018-05-02T22:55:20.937Z,15.80
2018-05-02T22:57:50.554Z,15.80
2018-05-02T23:00:19.462Z,15.80
2018-05-02T23:02:48.297Z,15.80
2018-05-02T23:05:17.126Z,15.70
2018-05-02T23:07:45.957Z,15.60
2018-05-02T23:10:15.556Z,15.50
2018-05-02T23:12:45.230Z,15.50
2018-05-02T23:15:14.061Z,15.50
2018-05-02T23:17:43.669Z,15.50
2018-05-02T23:20:13.257Z,15.40
2018-05-02T23:22:42.893Z,15.40
2018-05-02T23:25:12.505Z,15.40
2018-05-02T23:27:41.566Z,15.40
2018-05-02T23:30:10.387Z,15.40
2018-05-02T23:32:39.212Z,15.30
2018-05-02T23:35:08.055Z,15.30
2018-05-02T23:37:37.489Z,15.20
2018-05-02T23:40:06.329Z,15.30
2018-05-02T23:42:35.923Z,15.30
2018-05-02T23:45:04.773Z,15.20
2018-05-02T23:47:33.615Z,15.20
2018-05-02T23:50:03.223Z,15.30
2018-05-02T23:52:32.831Z,15.30
2018-05-02T23:55:02.465Z,15.40
2018-05-02T23:57:31.287Z,15.30
